Time;durP1;ratioP1;P1;durP2;ratioP2;P2;SDS_P1;SDS_P2;PMS_P1;PMS_P2;Temp;Humidity;BMP_temperature;BMP_pressure;BME280_temperature;BME280_humidity;BME280_pressure;Samples;Min_cycle;Max_cycle;Signal;HPM_P1;HPM_P2
2021/05/25 00:00:46;;;;;;;4.83;1.10;;;11.00;99.90;;;;;;5076653;28;20266;-67
2021/05/25 00:03:14;;;;;;;2.60;1.10;;;11.00;99.90;;;;;;5076514;28;20028;-66
2021/05/25 00:05:39;;;;;;;2.55;0.98;;;11.00;99.90;;;;;;5076640;28;20103;-67
2021/05/25 00:08:05;;;;;;;2.90;1.57;;;11.00;99.90;;;;;;5058469;28;20098;-67
2021/05/25 00:10:32;;;;;;;9.20;3.60;;;11.00;99.90;;;;;;5076021;28;20028;-66
2021/05/25 00:12:59;;;;;;;3.63;1.35;;;11.10;99.90;;;;;;5058223;28;20073;-67
2021/05/25 00:15:28;;;;;;;1.83;0.65;;;11.00;99.90;;;;;;5078359;28;20035;-67
2021/05/25 00:17:54;;;;;;;3.58;1.73;;;11.00;99.90;;;;;;5076593;28;20470;-66
2021/05/25 00:20:23;;;;;;;3.90;1.27;;;11.10;99.90;;;;;;5076040;28;20060;-67
2021/05/25 00:22:49;;;;;;;1.67;1.15;;;11.10;99.90;;;;;;5075960;28;20029;-66
2021/05/25 00:25:16;;;;;;;2.67;0.90;;;11.10;99.90;;;;;;5058290;28;20025;-66
2021/05/25 00:27:43;;;;;;;5.65;1.15;;;11.00;99.90;;;;;;5076064;28;20028;-67
2021/05/25 00:30:11;;;;;;;1.60;1.50;;;11.00;99.90;;;;;;5057826;28;20546;-66
2021/05/25 00:32:37;;;;;;;1.60;0.80;;;10.90;99.90;;;;;;5075941;28;20486;-67
2021/05/25 00:35:04;;;;;;;1.80;0.50;;;10.90;99.90;;;;;;5075644;28;20047;-67
2021/05/25 00:37:30;;;;;;;2.53;0.75;;;10.90;99.90;;;;;;5076651;28;20024;-65
2021/05/25 00:39:55;;;;;;;1.90;0.70;;;10.80;99.90;;;;;;5058742;28;20027;-67
2021/05/25 00:42:21;;;;;;;1.75;0.63;;;10.80;99.90;;;;;;5075761;28;20107;-66
2021/05/25 00:44:47;;;;;;;3.57;0.77;;;10.80;99.90;;;;;;5075630;28;20020;-68
2021/05/25 00:47:12;;;;;;;2.50;0.60;;;10.80;99.90;;;;;;5075603;28;20039;-66
2021/05/25 00:49:38;;;;;;;0.95;0.47;;;10.80;99.90;;;;;;5075281;28;20021;-67
2021/05/25 00:52:04;;;;;;;2.15;1.00;;;10.70;99.90;;;;;;5075469;28;20043;-66
2021/05/25 00:54:30;;;;;;;2.53;0.80;;;10.70;99.90;;;;;;5075420;28;20363;-67
2021/05/25 00:56:57;;;;;;;2.67;1.17;;;10.70;99.90;;;;;;5057109;28;20077;-67
2021/05/25 00:59:25;;;;;;;2.28;0.60;;;10.60;99.90;;;;;;5075677;28;20020;-67
2021/05/25 01:01:51;;;;;;;2.08;0.75;;;10.60;99.90;;;;;;5075644;28;20154;-67
2021/05/25 01:04:17;;;;;;;1.88;0.57;;;10.50;99.90;;;;;;5057174;28;20036;-67
2021/05/25 01:06:43;;;;;;;2.50;0.70;;;10.50;99.90;;;;;;5075033;28;20028;-67
2021/05/25 01:09:09;;;;;;;3.07;0.87;;;10.50;99.90;;;;;;5056890;28;20289;-66
2021/05/25 01:11:38;;;;;;;4.18;0.70;;;10.50;99.90;;;;;;5075492;28;20519;-66
2021/05/25 01:14:04;;;;;;;3.42;0.80;;;10.50;99.90;;;;;;5075044;28;20031;-66
2021/05/25 01:16:30;;;;;;;1.95;0.60;;;10.50;99.90;;;;;;5074851;28;20020;-66
2021/05/25 01:18:57;;;;;;;2.63;0.60;;;10.50;99.90;;;;;;5060909;28;20032;-66
2021/05/25 01:21:25;;;;;;;2.22;0.60;;;10.60;99.90;;;;;;5075213;28;20035;-66
2021/05/25 01:23:51;;;;;;;2.85;0.85;;;10.60;99.90;;;;;;5075419;28;20442;-66
2021/05/25 01:26:18;;;;;;;1.00;0.50;;;10.50;99.90;;;;;;5075068;28;20035;-66
2021/05/25 01:28:49;;;;;;;2.45;0.80;;;10.50;99.90;;;;;;5075228;28;20024;-66
2021/05/25 01:31:15;;;;;;;3.60;0.65;;;10.60;99.90;;;;;;5074536;28;20469;-66
2021/05/25 01:33:42;;;;;;;;;;;10.50;99.90;;;;;;5074811;28;20035;-66
2021/05/25 01:36:08;;;;;;;0.95;0.52;;;10.50;99.90;;;;;;5074462;28;19999;-65
2021/05/25 01:38:35;;;;;;;2.97;0.80;;;10.50;99.90;;;;;;5074496;28;20091;-66
2021/05/25 01:41:03;;;;;;;4.50;1.05;;;10.40;99.90;;;;;;5074155;28;20040;-66
2021/05/25 01:43:29;;;;;;;4.30;0.90;;;10.40;99.90;;;;;;5074704;28;20465;-68
2021/05/25 01:45:54;;;;;;;3.73;1.57;;;10.40;99.90;;;;;;5074772;28;20111;-68
2021/05/25 01:48:20;;;;;;;2.27;0.90;;;10.40;99.90;;;;;;5074495;28;20056;-67
2021/05/25 01:50:46;;;;;;;3.22;0.93;;;10.40;99.90;;;;;;5056564;28;20389;-67
2021/05/25 01:53:15;;;;;;;2.20;0.80;;;10.40;99.90;;;;;;5074181;28;20035;-66
2021/05/25 01:55:41;;;;;;;4.68;0.90;;;10.40;99.90;;;;;;5074365;28;20070;-66
2021/05/25 01:58:09;;;;;;;3.40;1.00;;;10.40;99.90;;;;;;5056370;28;20024;-65
2021/05/25 02:00:37;;;;;;;6.07;0.80;;;10.40;99.90;;;;;;5057064;28;20020;-69
2021/05/25 02:03:04;;;;;;;3.63;0.82;;;10.40;99.90;;;;;;5075839;28;20032;-67
2021/05/25 02:05:30;;;;;;;3.00;0.70;;;10.40;99.90;;;;;;5074482;28;20393;-67
2021/05/25 02:07:56;;;;;;;3.92;1.77;;;10.40;99.90;;;;;;5073918;28;20031;-67
2021/05/25 02:10:45;;;;;;;3.40;0.60;;;10.40;99.90;;;;;;5073261;28;20056;-66
2021/05/25 02:13:19;;;;;;;1.50;0.60;;;10.50;99.90;;;;;;5075238;28;20143;-67
2021/05/25 02:15:47;;;;;;;2.47;0.93;;;10.60;99.90;;;;;;5074172;28;20060;-66
2021/05/25 02:18:22;;;;;;;2.95;0.70;;;10.60;99.90;;;;;;5055728;28;20102;-66
2021/05/25 02:20:50;;;;;;;2.13;0.70;;;10.60;99.90;;;;;;5073891;28;20028;-67
2021/05/25 02:23:16;;;;;;;3.47;0.63;;;10.60;99.90;;;;;;5074149;28;20016;-68
2021/05/25 02:25:42;;;;;;;;;;;10.60;99.90;;;;;;5056304;28;20114;-67
2021/05/25 02:28:09;;;;;;;6.18;0.80;;;10.60;99.90;;;;;;5073671;28;19933;-67
2021/05/25 02:35:48;;;;;;;2.30;0.77;;;10.70;99.90;;;;;;5222990;22;20055;-66
2021/05/25 02:38:14;;;;;;;4.80;1.20;;;10.60;99.90;;;;;;5093966;28;20390;-66
2021/05/25 02:40:42;;;;;;;2.03;0.93;;;10.60;99.90;;;;;;5093844;28;20020;-66
2021/05/25 02:43:10;;;;;;;4.40;0.77;;;10.60;99.90;;;;;;5094106;28;20063;-67
2021/05/25 02:45:35;;;;;;;3.15;1.10;;;10.70;99.90;;;;;;5094147;28;20024;-66
2021/05/25 02:48:02;;;;;;;4.97;1.33;;;10.70;99.90;;;;;;5094800;28;20156;-67
2021/05/25 02:50:28;;;;;;;4.78;0.85;;;10.70;99.90;;;;;;5092396;28;20028;-66
2021/05/25 02:52:54;;;;;;;2.17;0.60;;;10.70;99.90;;;;;;5093655;28;20024;-67
2021/05/25 02:55:28;;;;;;;4.05;1.70;;;10.70;99.90;;;;;;5093380;28;20034;-67
2021/05/25 02:57:55;;;;;;;3.38;0.95;;;10.70;99.90;;;;;;5093442;28;20161;-66
2021/05/25 03:00:24;;;;;;;6.13;1.92;;;10.70;99.90;;;;;;5093564;28;20048;-66
2021/05/25 03:02:50;;;;;;;2.28;0.80;;;10.80;99.90;;;;;;5091884;28;20024;-66
2021/05/25 03:05:16;;;;;;;;;;;10.80;99.90;;;;;;5093498;28;20102;-66
2021/05/25 03:07:43;;;;;;;3.95;0.70;;;10.80;99.90;;;;;;5094691;28;19961;-66
2021/05/25 03:10:10;;;;;;;2.03;0.60;;;10.90;99.90;;;;;;5095367;28;20039;-66
2021/05/25 03:12:37;;;;;;;5.10;0.85;;;10.90;99.90;;;;;;5093312;28;20036;-66
2021/05/25 03:15:13;;;;;;;3.80;0.88;;;11.00;99.90;;;;;;5093022;28;20051;-66
2021/05/25 03:17:39;;;;;;;2.70;0.93;;;11.00;99.90;;;;;;5093522;28;20046;-66
2021/05/25 03:20:06;;;;;;;1.63;0.60;;;10.90;99.90;;;;;;5092496;28;20021;-66
2021/05/25 03:22:32;;;;;;;3.35;0.85;;;10.90;99.90;;;;;;5092988;28;20032;-66
2021/05/25 03:24:58;;;;;;;3.88;0.80;;;10.90;99.90;;;;;;5091744;28;20072;-66
2021/05/25 03:27:24;;;;;;;3.87;0.80;;;10.90;99.90;;;;;;5091829;28;20044;-67
2021/05/25 03:29:50;;;;;;;3.10;1.75;;;10.90;99.90;;;;;;5093393;28;20480;-67
2021/05/25 03:32:16;;;;;;;5.57;0.70;;;10.80;99.90;;;;;;5093132;28;20153;-67
2021/05/25 03:34:42;;;;;;;6.93;0.70;;;10.80;99.90;;;;;;5093101;28;20032;-66
2021/05/25 03:37:08;;;;;;;1.87;0.70;;;10.90;99.90;;;;;;5091713;28;20725;-67
2021/05/25 03:39:33;;;;;;;3.15;1.17;;;10.90;99.90;;;;;;5091754;28;20093;-66
2021/05/25 03:42:00;;;;;;;2.43;0.60;;;10.90;99.90;;;;;;5093321;28;20381;-66
2021/05/25 03:44:26;;;;;;;5.25;0.77;;;10.90;99.90;;;;;;5093047;28;20059;-66
2021/05/25 03:46:52;;;;;;;2.67;0.70;;;10.90;99.90;;;;;;5093863;28;20364;-66
2021/05/25 03:49:18;;;;;;;4.45;0.80;;;10.90;99.90;;;;;;5093179;28;20032;-67
2021/05/25 03:51:44;;;;;;;5.03;0.90;;;10.90;99.90;;;;;;5091605;28;20111;-67
2021/05/25 03:54:22;;;;;;;4.40;0.60;;;10.80;99.90;;;;;;5092844;28;20111;-66
2021/05/25 03:56:53;;;;;;;3.72;0.82;;;10.90;99.90;;;;;;5092950;28;20048;-65
2021/05/25 03:59:18;;;;;;;5.32;1.20;;;10.90;99.90;;;;;;5091572;28;20328;-66
2021/05/25 04:01:44;;;;;;;2.83;0.80;;;10.90;99.90;;;;;;5093119;28;20099;-66
2021/05/25 04:04:10;;;;;;;3.22;0.90;;;10.90;99.90;;;;;;5097285;28;20088;-65
2021/05/25 04:06:37;;;;;;;1.55;0.60;;;11.00;99.90;;;;;;5093580;28;20028;-66
2021/05/25 04:09:05;;;;;;;1.17;0.70;;;10.90;99.90;;;;;;5092593;28;20020;-65
2021/05/25 04:11:30;;;;;;;1.60;0.52;;;10.90;99.90;;;;;;5093884;28;20398;-66
2021/05/25 04:13:56;;;;;;;2.47;0.80;;;10.90;99.90;;;;;;5093918;28;20111;-66
2021/05/25 04:16:21;;;;;;;2.33;0.70;;;10.90;99.90;;;;;;5092630;28;20065;-66
2021/05/25 04:18:47;;;;;;;2.70;0.40;;;10.90;99.90;;;;;;5092697;28;20102;-66
2021/05/25 04:21:13;;;;;;;3.20;0.53;;;10.90;99.90;;;;;;5093130;28;20392;-65
2021/05/25 04:23:39;;;;;;;0.70;0.40;;;10.90;99.90;;;;;;5093138;28;20375;-65
2021/05/25 04:26:04;;;;;;;1.73;0.65;;;10.80;99.90;;;;;;5092547;28;20032;-66
2021/05/25 04:28:30;;;;;;;2.95;0.47;;;10.80;99.90;;;;;;5091601;28;20035;-67
2021/05/25 04:30:56;;;;;;;2.73;0.60;;;10.80;99.90;;;;;;5093455;28;20032;-65
2021/05/25 04:33:21;;;;;;;2.73;0.60;;;10.80;99.90;;;;;;5093707;28;20048;-66
2021/05/25 04:35:47;;;;;;;2.95;0.75;;;10.80;99.90;;;;;;5096054;28;20039;-66
2021/05/25 04:38:14;;;;;;;0.98;0.63;;;10.80;99.90;;;;;;5094701;28;20036;-66
2021/05/25 04:40:41;;;;;;;1.73;0.60;;;10.70;99.90;;;;;;5096206;28;20534;-66
2021/05/25 04:43:08;;;;;;;2.97;0.93;;;10.70;99.90;;;;;;5096166;28;20070;-66
2021/05/25 04:45:34;;;;;;;;;;;10.70;99.90;;;;;;5096348;28;20039;-67
2021/05/25 04:47:59;;;;;;;1.35;0.68;;;10.70;99.90;;;;;;5096394;28;19904;-66
2021/05/25 04:50:25;;;;;;;1.73;0.60;;;10.70;99.90;;;;;;5096404;28;20077;-66
2021/05/25 04:52:52;;;;;;;1.45;0.40;;;10.80;99.90;;;;;;5096100;28;20096;-66
2021/05/25 04:55:19;;;;;;;;;;;10.80;99.90;;;;;;5096283;28;20032;-66
2021/05/25 04:57:45;;;;;;;1.80;0.57;;;10.80;99.90;;;;;;5094936;28;19915;-67
2021/05/25 05:00:14;;;;;;;1.37;0.50;;;10.70;99.90;;;;;;5095784;28;20392;-66
2021/05/25 05:02:40;;;;;;;0.98;0.40;;;10.80;99.90;;;;;;5095764;28;20101;-66
2021/05/25 05:05:08;;;;;;;1.50;0.65;;;10.80;99.90;;;;;;5094353;28;20085;-66
2021/05/25 05:07:34;;;;;;;3.05;0.60;;;10.70;99.90;;;;;;5095438;28;20050;-66
2021/05/25 05:09:59;;;;;;;0.93;0.55;;;10.80;99.90;;;;;;5095307;28;20480;-66
2021/05/25 05:12:26;;;;;;;2.22;0.75;;;10.80;99.90;;;;;;5095985;28;20024;-66
2021/05/25 05:14:52;;;;;;;2.72;0.50;;;10.80;99.90;;;;;;5093999;28;20550;-66
2021/05/25 05:17:18;;;;;;;4.28;0.68;;;10.90;99.90;;;;;;5095619;28;20086;-65
2021/05/25 05:19:44;;;;;;;2.47;0.70;;;10.90;99.90;;;;;;5094434;28;20020;-66
2021/05/25 05:22:10;;;;;;;1.48;0.52;;;10.90;99.90;;;;;;5095475;28;20032;-67
2021/05/25 05:24:36;;;;;;;3.17;0.60;;;11.00;99.90;;;;;;5095532;28;20431;-67
2021/05/25 05:27:02;;;;;;;1.75;0.52;;;11.00;99.90;;;;;;5095547;28;20027;-67
2021/05/25 05:29:27;;;;;;;2.55;0.70;;;11.00;99.90;;;;;;5095697;28;20038;-67
2021/05/25 05:31:53;;;;;;;1.97;0.70;;;11.10;99.90;;;;;;5095629;28;20089;-67
2021/05/25 05:34:19;;;;;;;2.95;0.60;;;11.10;99.90;;;;;;5094072;28;20470;-67
2021/05/25 05:36:44;;;;;;;1.63;0.80;;;11.10;99.90;;;;;;5095819;28;20086;-66
2021/05/25 05:39:10;;;;;;;1.70;0.60;;;11.20;99.90;;;;;;5094216;28;20024;-67
2021/05/25 05:41:35;;;;;;;2.07;1.07;;;11.20;99.90;;;;;;5095472;28;20017;-66
2021/05/25 05:44:01;;;;;;;2.33;0.70;;;11.20;99.90;;;;;;5092603;28;20055;-67
2021/05/25 05:46:27;;;;;;;4.15;2.22;;;11.20;99.90;;;;;;5094788;28;20023;-67
2021/05/25 05:48:53;;;;;;;3.25;0.80;;;11.20;99.90;;;;;;5094680;28;20420;-66
2021/05/25 05:51:19;;;;;;;2.00;0.43;;;11.30;99.90;;;;;;5094673;28;20058;-67
2021/05/25 05:53:44;;;;;;;1.98;0.60;;;11.40;99.90;;;;;;5094771;28;20258;-67
2021/05/25 05:56:10;;;;;;;2.23;0.70;;;11.40;99.90;;;;;;5095179;28;20024;-67
2021/05/25 05:58:36;;;;;;;3.03;0.70;;;11.40;99.90;;;;;;5095242;28;20024;-66
2021/05/25 06:01:02;;;;;;;3.13;0.60;;;11.50;99.90;;;;;;5096036;28;20028;-67
2021/05/25 06:03:27;;;;;;;1.60;0.68;;;11.60;99.90;;;;;;5095094;28;20024;-67
2021/05/25 06:05:53;;;;;;;2.87;0.73;;;11.70;99.90;;;;;;5094957;28;20089;-67
2021/05/25 06:08:19;;;;;;;1.83;0.63;;;11.90;99.90;;;;;;5094572;28;20035;-68
2021/05/25 06:10:51;;;;;;;1.70;0.80;;;12.00;99.90;;;;;;5094961;28;20481;-67
2021/05/25 06:13:22;;;;;;;2.78;0.70;;;12.10;99.90;;;;;;5094803;28;20028;-66
2021/05/25 06:15:48;;;;;;;1.92;0.80;;;12.10;99.90;;;;;;5094202;28;20059;-67
2021/05/25 06:18:14;;;;;;;4.45;0.88;;;12.00;99.90;;;;;;5095050;28;20016;-67
2021/05/25 06:20:40;;;;;;;7.33;0.70;;;11.90;99.90;;;;;;5094653;28;20040;-67
2021/05/25 06:23:06;;;;;;;2.22;0.90;;;11.70;99.90;;;;;;5093389;28;20266;-67
2021/05/25 06:25:32;;;;;;;1.30;0.55;;;11.60;99.90;;;;;;5094865;28;20064;-67
2021/05/25 06:27:58;;;;;;;2.33;0.52;;;11.40;99.90;;;;;;5093092;28;20024;-67
2021/05/25 06:30:23;;;;;;;4.53;0.77;;;11.30;99.90;;;;;;5094296;28;20032;-67
2021/05/25 06:32:49;;;;;;;4.28;0.60;;;11.40;99.90;;;;;;5094326;28;20099;-67
2021/05/25 06:35:16;;;;;;;3.10;0.90;;;11.40;99.90;;;;;;5094280;28;20027;-67
2021/05/25 06:37:42;;;;;;;1.98;1.10;;;11.40;99.90;;;;;;5094216;28;20495;-68
2021/05/25 06:40:09;;;;;;;2.85;0.63;;;11.30;99.90;;;;;;5095123;28;20380;-67
2021/05/25 06:42:35;;;;;;;1.42;0.60;;;11.20;99.90;;;;;;5093957;28;20102;-67
2021/05/25 06:45:01;;;;;;;4.57;0.73;;;11.10;99.90;;;;;;5093970;28;20039;-66
2021/05/25 06:47:26;;;;;;;4.10;0.80;;;11.10;99.90;;;;;;5094316;28;20381;-67
2021/05/25 06:49:53;;;;;;;2.80;0.90;;;11.20;99.90;;;;;;5093808;28;20024;-66
2021/05/25 06:52:19;;;;;;;5.82;0.80;;;11.20;99.90;;;;;;5092298;28;20032;-67
2021/05/25 06:54:45;;;;;;;3.80;0.65;;;11.20;99.90;;;;;;5092235;28;20121;-67
2021/05/25 06:57:12;;;;;;;2.92;1.60;;;11.10;99.90;;;;;;5092256;28;20119;-67
2021/05/25 06:59:37;;;;;;;1.75;0.60;;;11.10;99.90;;;;;;5092904;28;20538;-66
2021/05/25 07:02:04;;;;;;;2.60;0.80;;;11.00;99.90;;;;;;5093939;28;20025;-68
2021/05/25 07:04:29;;;;;;;2.58;0.75;;;11.00;99.90;;;;;;5093848;28;20258;-67
2021/05/25 07:06:55;;;;;;;3.58;1.00;;;10.90;99.90;;;;;;5093850;28;20387;-66
2021/05/25 07:09:21;;;;;;;4.43;1.10;;;10.80;99.90;;;;;;5093558;28;20028;-67
2021/05/25 07:11:47;;;;;;;2.63;0.77;;;10.80;99.90;;;;;;5093595;28;20099;-67
2021/05/25 07:14:12;;;;;;;2.85;0.57;;;10.80;99.90;;;;;;5093638;28;20072;-68
2021/05/25 07:16:38;;;;;;;1.23;0.70;;;10.70;99.90;;;;;;5092207;28;20020;-68
2021/05/25 07:19:04;;;;;;;4.93;0.83;;;10.70;99.90;;;;;;5094363;28;20024;-67
2021/05/25 07:21:30;;;;;;;6.63;0.80;;;10.50;99.90;;;;;;5092361;28;20258;-67
2021/05/25 07:23:55;;;;;;;3.47;0.90;;;10.50;99.90;;;;;;5092181;28;20163;-67
2021/05/25 07:26:22;;;;;;;2.90;0.90;;;10.50;99.90;;;;;;5093107;28;20048;-66
2021/05/25 07:28:48;;;;;;;2.72;0.80;;;10.50;99.90;;;;;;5093372;28;20027;-67
2021/05/25 07:31:14;;;;;;;2.65;1.15;;;10.50;99.90;;;;;;5093317;28;20039;-66
2021/05/25 07:33:40;;;;;;;6.17;1.27;;;10.40;99.90;;;;;;5094396;28;20480;-66
2021/05/25 07:36:06;;;;;;;6.18;1.30;;;10.40;99.90;;;;;;5092964;28;20031;-66
2021/05/25 07:38:31;;;;;;;5.38;0.95;;;10.40;99.90;;;;;;5093110;28;20040;-66
2021/05/25 07:40:57;;;;;;;4.00;1.27;;;10.50;99.90;;;;;;5093261;28;20077;-67
2021/05/25 07:43:23;;;;;;;5.32;1.27;;;10.50;99.90;;;;;;5093416;28;20110;-67
2021/05/25 07:45:49;;;;;;;2.80;1.37;;;10.50;99.90;;;;;;5091808;28;20036;-68
2021/05/25 07:48:14;;;;;;;3.13;0.70;;;10.80;99.90;;;;;;5093129;28;20113;-67
2021/05/25 07:50:40;;;;;;;3.97;1.13;;;11.10;99.90;;;;;;5092030;28;20266;-67
2021/05/25 07:53:06;;;;;;;4.32;0.90;;;11.20;99.90;;;;;;5091890;28;20328;-67
2021/05/25 07:55:32;;;;;;;3.55;0.82;;;11.20;99.90;;;;;;5093490;28;20477;-66
2021/05/25 07:57:59;;;;;;;3.33;0.90;;;11.20;99.90;;;;;;5095859;28;20054;-67
2021/05/25 08:00:26;;;;;;;5.57;1.60;;;11.20;99.90;;;;;;5092983;28;20473;-66
2021/05/25 08:02:52;;;;;;;5.10;1.35;;;11.20;99.90;;;;;;5092955;28;20022;-67
2021/05/25 08:05:18;;;;;;;6.85;1.17;;;11.10;99.90;;;;;;5092259;28;20068;-67
2021/05/25 08:07:44;;;;;;;;;;;11.00;99.90;;;;;;5095104;28;20441;-67
2021/05/25 08:10:12;;;;;;;4.82;1.10;;;10.90;99.90;;;;;;5113258;28;19904;-67
2021/05/25 08:12:38;;;;;;;2.78;1.05;;;10.90;99.90;;;;;;5097030;28;20440;-68
2021/05/25 08:15:06;;;;;;;5.07;1.17;;;10.90;99.90;;;;;;5096917;28;20103;-67
2021/05/25 08:17:45;;;;;;;4.60;1.10;;;10.90;99.90;;;;;;5097371;28;20107;-68
2021/05/25 08:20:16;;;;;;;4.85;1.42;;;10.90;99.90;;;;;;5096832;28;20364;-68
2021/05/25 08:22:50;;;;;;;6.00;1.17;;;10.90;99.90;;;;;;5096679;28;20025;-67
2021/05/25 08:25:18;;;;;;;3.40;1.40;;;10.90;99.90;;;;;;5096598;28;20094;-67
2021/05/25 08:27:46;;;;;;;4.00;1.10;;;10.80;99.90;;;;;;5097158;28;20024;-67
2021/05/25 08:30:14;;;;;;;4.35;1.42;;;10.80;99.90;;;;;;5096524;28;20384;-67
2021/05/25 08:32:39;;;;;;;5.75;1.38;;;10.80;99.90;;;;;;5095379;28;20023;-68
2021/05/25 08:35:06;;;;;;;3.22;1.48;;;10.80;99.90;;;;;;5096733;28;20369;-67
2021/05/25 08:37:34;;;;;;;2.35;1.05;;;10.80;99.90;;;;;;5094816;28;20060;-67
2021/05/25 08:40:07;;;;;;;4.95;1.48;;;10.80;99.90;;;;;;5096094;28;20050;-68
2021/05/25 08:42:33;;;;;;;2.75;1.00;;;10.90;99.90;;;;;;5096248;28;20020;-68
2021/05/25 08:44:59;;;;;;;4.28;2.03;;;10.90;99.90;;;;;;5096362;28;20099;-67
2021/05/25 08:47:26;;;;;;;2.35;0.98;;;11.00;99.90;;;;;;5098033;28;20480;-69
2021/05/25 08:49:51;;;;;;;3.80;0.95;;;11.10;99.90;;;;;;5097079;28;20020;-68
2021/05/25 08:52:17;;;;;;;4.75;1.00;;;11.50;99.90;;;;;;5096529;28;20028;-68
2021/05/25 08:54:44;;;;;;;5.05;1.35;;;12.60;99.90;;;;;;5096502;28;20021;-69
2021/05/25 08:57:13;;;;;;;;;;;13.50;99.90;;;;;;5096454;28;20043;-69
2021/05/25 08:59:39;;;;;;;8.05;1.20;;;13.80;99.90;;;;;;5097081;28;19904;-69
2021/05/25 09:02:05;;;;;;;3.77;0.80;;;14.50;99.90;;;;;;5096254;28;20468;-67
2021/05/25 09:04:56;;;;;;;5.13;0.80;;;15.30;99.90;;;;;;5099016;28;20262;-67
2021/05/25 09:07:47;;;;;;;2.17;0.77;;;15.30;99.90;;;;;;5095108;28;20024;-67
2021/05/25 09:10:39;;;;;;;3.75;1.02;;;15.10;99.90;;;;;;5103393;28;20519;-66
2021/05/25 09:13:12;;;;;;;2.80;0.88;;;15.10;99.80;;;;;;5097398;28;20107;-67
2021/05/25 09:15:43;;;;;;;4.60;0.80;;;16.30;97.90;;;;;;5095916;28;20024;-67
2021/05/25 09:18:18;;;;;;;2.35;0.70;;;17.50;95.60;;;;;;5095433;28;20078;-66
2021/05/25 09:20:47;;;;;;;3.75;0.95;;;18.60;93.10;;;;;;5094452;28;20027;-67
2021/05/25 09:23:16;;;;;;;2.55;0.80;;;19.00;90.90;;;;;;5095575;28;20013;-67
2021/05/25 09:26:03;;;;;;;2.22;0.85;;;19.20;89.80;;;;;;5095941;28;20020;-67
2021/05/25 09:28:29;;;;;;;;;;;19.60;88.10;;;;;;5096411;28;20027;-67
2021/05/25 09:30:55;;;;;;;2.45;0.93;;;19.40;85.20;;;;;;5095870;28;19904;-67
2021/05/25 09:33:21;;;;;;;4.80;0.65;;;19.50;82.70;;;;;;5095611;28;20357;-68
2021/05/25 09:35:49;;;;;;;2.88;0.70;;;19.40;83.10;;;;;;5095314;28;20392;-68
2021/05/25 09:38:20;;;;;;;2.50;0.80;;;20.00;83.20;;;;;;5096034;28;20032;-69
2021/05/25 09:40:48;;;;;;;3.25;0.88;;;20.60;80.90;;;;;;5095750;28;20477;-68
2021/05/25 09:43:26;;;;;;;1.88;0.73;;;21.00;77.40;;;;;;5094232;28;20047;-68
2021/05/25 09:45:54;;;;;;;1.75;0.50;;;21.30;74.40;;;;;;5095168;28;20023;-67
2021/05/25 09:48:21;;;;;;;2.72;0.85;;;21.10;74.30;;;;;;5095414;28;20034;-67
2021/05/25 09:50:47;;;;;;;2.10;0.60;;;20.30;76.30;;;;;;5097407;28;20023;-65
2021/05/25 09:53:20;;;;;;;5.30;1.00;;;19.90;75.70;;;;;;5095689;28;20028;-68
2021/05/25 09:56:04;;;;;;;3.90;0.80;;;20.10;75.80;;;;;;5094883;28;20024;-66
2021/05/25 09:58:32;;;;;;;3.25;1.00;;;20.50;75.50;;;;;;5095176;28;20020;-68
2021/05/25 10:01:05;;;;;;;2.70;0.90;;;21.40;74.20;;;;;;5095213;28;20100;-66
2021/05/25 10:03:36;;;;;;;2.45;0.80;;;21.80;70.00;;;;;;5095421;28;20118;-66
2021/05/25 10:06:02;;;;;;;2.00;0.80;;;21.70;70.20;;;;;;5095101;28;20120;-66
2021/05/25 10:08:28;;;;;;;3.45;1.08;;;20.80;69.10;;;;;;5095409;28;20181;-67
2021/05/25 10:10:56;;;;;;;3.80;1.15;;;20.50;70.90;;;;;;5093548;28;20055;-67
2021/05/25 10:13:24;;;;;;;2.67;0.80;;;19.50;72.80;;;;;;5095264;28;20535;-67
2021/05/25 10:15:51;;;;;;;3.17;0.85;;;18.50;76.10;;;;;;5095140;28;20028;-66
2021/05/25 10:20:45;;;;;;;2.97;0.70;;;18.10;75.20;;;;;;5095046;28;20385;-66
2021/05/25 10:23:11;;;;;;;4.13;1.02;;;17.70;77.50;;;;;;5094643;28;20024;-67
2021/05/25 10:25:38;;;;;;;;;;;18.40;75.60;;;;;;5094884;28;20028;-67
2021/05/25 10:28:09;;;;;;;3.28;1.23;;;18.50;75.10;;;;;;5094517;28;19914;-69
2021/05/25 10:30:44;;;;;;;2.17;1.02;;;19.40;73.60;;;;;;5092425;28;20058;-66
2021/05/25 10:33:09;;;;;;;2.78;1.02;;;20.30;70.80;;;;;;5094322;28;20032;-67
2021/05/25 10:36:05;;;;;;;3.00;0.80;;;20.70;68.90;;;;;;5094530;28;20107;-67
2021/05/25 10:38:42;;;;;;;4.40;0.90;;;21.80;67.50;;;;;;5093088;28;20032;-67
2021/05/25 10:41:08;;;;;;;3.05;1.05;;;21.60;64.90;;;;;;5094054;28;20031;-66
2021/05/25 10:43:39;;;;;;;5.15;1.02;;;20.40;67.40;;;;;;5092454;28;20024;-67
2021/05/25 10:46:11;;;;;;;4.57;1.48;;;20.20;68.20;;;;;;5093675;28;20338;-66
2021/05/25 10:51:48;;;;;;;3.70;1.13;;;20.20;69.10;;;;;;5094366;28;20032;-67
2021/05/25 10:54:34;;;;;;;5.65;1.38;;;20.80;66.70;;;;;;5093783;28;20110;-67
2021/05/25 10:57:04;;;;;;;3.22;0.90;;;21.20;66.50;;;;;;5093427;28;20426;-67
2021/05/25 10:59:59;;;;;;;4.05;0.90;;;20.80;64.60;;;;;;5093975;28;20027;-66
2021/05/25 11:03:02;;;;;;;5.72;1.42;;;20.10;67.00;;;;;;5094414;28;20028;-66
2021/05/25 11:05:28;;;;;;;8.20;1.23;;;18.90;68.00;;;;;;5052040;28;20075;-66
2021/05/25 11:08:14;;;;;;;2.85;0.93;;;17.90;69.60;;;;;;5084867;28;20040;-66
2021/05/25 11:10:57;;;;;;;3.17;0.80;;;17.50;71.90;;;;;;5087101;28;20032;-67
2021/05/25 11:13:30;;;;;;;2.70;1.00;;;17.30;73.70;;;;;;5095265;28;20460;-67
2021/05/25 11:16:32;;;;;;;4.03;0.93;;;17.10;75.40;;;;;;5094678;28;20039;-66
2021/05/25 11:19:06;;;;;;;4.28;1.35;;;17.00;75.30;;;;;;5051508;28;20470;-67
2021/05/25 11:24:46;;;;;;;5.63;1.10;;;16.30;78.00;;;;;;5094693;28;20027;-67
2021/05/25 11:27:26;;;;;;;4.97;1.33;;;15.60;88.30;;;;;;5093988;28;20023;-66
2021/05/25 11:29:59;;;;;;;5.05;1.27;;;15.00;92.20;;;;;;5094011;28;20480;-66
2021/05/25 11:32:39;;;;;;;6.13;1.23;;;14.20;99.90;;;;;;5093438;28;20022;-67
2021/05/25 11:35:06;;;;;;;4.07;0.90;;;13.60;99.90;;;;;;5092050;28;20112;-67
2021/05/25 11:37:46;;;;;;;2.65;0.90;;;13.10;99.90;;;;;;5093120;28;20107;-66
2021/05/25 11:40:14;;;;;;;1.92;1.00;;;12.90;99.90;;;;;;5091650;28;20020;-66
2021/05/25 11:42:43;;;;;;;4.13;1.00;;;13.00;99.90;;;;;;5094768;28;20058;-67
2021/05/25 11:45:09;;;;;;;2.60;1.10;;;13.40;99.90;;;;;;5098014;28;20028;-67
2021/05/25 11:47:37;;;;;;;3.60;1.13;;;13.80;99.90;;;;;;5097468;28;20020;-67
2021/05/25 11:50:03;;;;;;;5.43;1.55;;;14.00;99.90;;;;;;5099736;28;20048;-67
2021/05/25 11:52:38;;;;;;;5.30;1.13;;;14.10;99.90;;;;;;5097710;28;20028;-66
2021/05/25 11:55:09;;;;;;;7.25;1.27;;;14.30;99.90;;;;;;5098703;28;20020;-66
2021/05/25 11:57:40;;;;;;;5.82;1.45;;;14.50;99.90;;;;;;5098369;28;20050;-68
2021/05/25 12:00:18;;;;;;;5.35;1.15;;;14.60;99.90;;;;;;5098202;28;20012;-68
2021/05/25 12:02:49;;;;;;;4.47;0.98;;;14.60;99.90;;;;;;5096372;28;20154;-66
2021/05/25 12:05:15;;;;;;;6.13;1.48;;;14.70;99.90;;;;;;5097387;28;20028;-67
2021/05/25 12:07:43;;;;;;;7.13;1.38;;;14.50;99.90;;;;;;5097796;28;20052;-67
2021/05/25 12:10:11;;;;;;;5.45;1.27;;;14.30;99.90;;;;;;5097565;28;20039;-67
2021/05/25 12:12:42;;;;;;;5.43;1.65;;;14.30;99.90;;;;;;5097454;28;20020;-67
2021/05/25 12:15:21;;;;;;;4.53;1.02;;;14.50;99.90;;;;;;5096129;28;20024;-66
2021/05/25 12:17:50;;;;;;;6.78;1.75;;;14.50;99.90;;;;;;5097832;28;20095;-67
2021/05/25 12:20:18;;;;;;;5.15;1.40;;;14.60;99.90;;;;;;5097284;28;20430;-68
2021/05/25 12:22:45;;;;;;;5.47;1.65;;;14.90;99.90;;;;;;5097602;28;20016;-66
2021/05/25 12:25:18;;;;;;;3.78;1.08;;;15.00;99.90;;;;;;5097399;28;20130;-66
2021/05/25 12:27:45;;;;;;;4.10;1.00;;;15.10;99.90;;;;;;5097416;28;20023;-67
2021/05/25 12:30:13;;;;;;;3.60;1.33;;;15.10;99.90;;;;;;5096998;28;20038;-67
2021/05/25 12:32:38;;;;;;;3.42;1.00;;;15.30;98.30;;;;;;5096499;28;20028;-68
2021/05/25 12:35:05;;;;;;;4.15;1.15;;;15.40;97.80;;;;;;5096475;28;20077;-67
2021/05/25 12:37:30;;;;;;;3.65;1.27;;;15.40;97.70;;;;;;5096071;28;20056;-67
2021/05/25 12:40:02;;;;;;;3.80;0.88;;;15.60;97.60;;;;;;5096575;28;20059;-67
2021/05/25 12:42:36;;;;;;;4.32;1.05;;;15.60;95.30;;;;;;5094905;28;20032;-67
2021/05/25 12:45:14;;;;;;;3.67;1.02;;;15.70;94.80;;;;;;5094750;28;20031;-66
2021/05/25 12:48:00;;;;;;;4.90;1.17;;;15.80;95.10;;;;;;5097050;28;20107;-67
2021/05/25 12:50:36;;;;;;;6.25;1.20;;;16.00;94.90;;;;;;5099991;28;20026;-68
2021/05/25 12:53:06;;;;;;;3.13;0.82;;;15.90;94.10;;;;;;5097737;28;20021;-67
2021/05/25 12:55:33;;;;;;;2.95;0.85;;;15.90;93.80;;;;;;5097306;28;20020;-67
2021/05/25 12:57:59;;;;;;;7.50;1.50;;;15.50;94.50;;;;;;5096661;28;20028;-67
2021/05/25 13:00:36;;;;;;;7.65;2.10;;;15.10;99.20;;;;;;5096371;28;20430;-66
2021/05/25 13:03:04;;;;;;;4.95;1.30;;;14.60;99.90;;;;;;5096097;28;20031;-66
2021/05/25 13:05:36;;;;;;;5.97;1.38;;;13.90;99.90;;;;;;5095742;28;20024;-66
2021/05/25 13:08:05;;;;;;;5.90;1.20;;;13.50;99.90;;;;;;5096214;28;20410;-66